createdAt,value
2023-04-22T00:00:34.693Z,7.31
2023-04-22T00:03:01.163Z,6.88
2023-04-22T00:05:27.586Z,6.72
2023-04-22T00:07:53.877Z,7.00
2023-04-22T00:10:20.078Z,7.20
2023-04-22T00:12:46.283Z,7.45
2023-04-22T00:15:12.483Z,7.44
2023-04-22T00:17:38.746Z,7.57
2023-04-22T00:20:05.201Z,7.12
2023-04-22T00:22:31.424Z,6.54
2023-04-22T00:24:57.639Z,6.70
2023-04-22T00:27:23.863Z,6.91
2023-04-22T00:29:50.056Z,7.19
2023-04-22T00:32:16.255Z,7.23
2023-04-22T00:34:42.464Z,7.10
2023-04-22T00:37:08.688Z,7.25
2023-04-22T00:39:34.885Z,7.30
2023-04-22T00:42:01.108Z,7.29
2023-04-22T00:44:27.309Z,7.01
2023-04-22T00:46:53.959Z,6.63
2023-04-22T00:49:20.211Z,6.57
2023-04-22T00:51:46.431Z,6.63
2023-04-22T00:54:12.637Z,6.93
2023-04-22T00:56:38.853Z,6.54
2023-04-22T00:59:05.056Z,6.02
2023-04-22T01:01:31.284Z,6.24
2023-04-22T01:03:57.800Z,6.66
2023-04-22T01:06:24.098Z,6.71
2023-04-22T01:08:50.302Z,6.88
2023-04-22T01:11:16.515Z,7.00
2023-04-22T01:13:42.726Z,7.14
2023-04-22T01:16:09.120Z,7.24
2023-04-22T01:18:35.567Z,7.24
2023-04-22T01:21:01.847Z,7.00
2023-04-22T01:23:28.079Z,6.96
2023-04-22T01:25:54.292Z,6.61
2023-04-22T01:28:20.506Z,5.92
2023-04-22T01:30:46.753Z,5.62
2023-04-22T01:33:13.020Z,5.41
2023-04-22T01:35:39.456Z,5.65
2023-04-22T01:38:06.039Z,5.99
2023-04-22T01:40:32.255Z,6.10
2023-04-22T01:43:01.606Z,6.29
2023-04-22T01:45:27.854Z,6.41
2023-04-22T01:47:54.138Z,6.64
2023-04-22T01:50:20.546Z,6.84
2023-04-22T01:52:46.756Z,6.68
2023-04-22T01:55:12.961Z,6.74
2023-04-22T01:57:39.177Z,6.24
2023-04-22T02:00:05.710Z,5.82
2023-04-22T02:02:31.983Z,5.49
2023-04-22T02:04:58.299Z,5.17
2023-04-22T02:07:24.526Z,5.33
2023-04-22T02:09:50.981Z,5.45
2023-04-22T02:12:17.234Z,5.33
2023-04-22T02:14:43.436Z,5.71
2023-04-22T02:17:09.660Z,5.88
2023-04-22T02:19:35.873Z,6.00
2023-04-22T02:22:02.116Z,6.11
2023-04-22T02:24:28.310Z,5.81
2023-04-22T02:26:54.519Z,5.78
2023-04-22T02:29:20.737Z,5.77
2023-04-22T02:31:46.954Z,5.69
2023-04-22T02:34:13.187Z,5.69
2023-04-22T02:36:39.398Z,5.93
2023-04-22T02:39:05.613Z,5.92
2023-04-22T02:41:31.923Z,5.82
2023-04-22T02:43:58.121Z,5.62
2023-04-22T02:46:24.373Z,5.69
2023-04-22T02:48:50.606Z,5.86
2023-04-22T02:51:16.826Z,5.99
2023-04-22T02:53:43.031Z,6.16
2023-04-22T02:56:09.250Z,6.02
2023-04-22T02:58:35.455Z,6.16
2023-04-22T03:01:01.711Z,6.13
2023-04-22T03:03:28.034Z,5.66
2023-04-22T03:05:54.347Z,5.88
2023-04-22T03:08:20.565Z,5.84
2023-04-22T03:10:46.771Z,5.96
2023-04-22T03:13:13.170Z,5.75
2023-04-22T03:15:42.388Z,5.87
2023-04-22T03:18:08.640Z,5.83
2023-04-22T03:20:35.126Z,5.80
2023-04-22T03:23:01.464Z,5.90
2023-04-22T03:25:27.746Z,5.80
2023-04-22T03:27:53.953Z,5.81
2023-04-22T03:30:20.171Z,5.83
2023-04-22T03:32:46.414Z,5.37
2023-04-22T03:35:12.692Z,5.17
2023-04-22T03:37:38.923Z,5.38
2023-04-22T03:40:05.442Z,5.35
2023-04-22T03:42:31.693Z,5.55
2023-04-22T03:44:57.899Z,5.52
2023-04-22T03:47:24.127Z,5.34
2023-04-22T03:49:50.338Z,5.47
2023-04-22T03:52:16.547Z,5.50
2023-04-22T03:54:42.741Z,5.53
2023-04-22T03:57:08.963Z,5.77
2023-04-22T03:59:35.170Z,5.82
2023-04-22T04:02:01.459Z,5.93
2023-04-22T04:04:28.073Z,5.84
2023-04-22T04:06:55.010Z,6.08
2023-04-22T04:09:21.232Z,5.81
2023-04-22T04:11:47.453Z,5.72
2023-04-22T04:14:13.753Z,5.61
2023-04-22T04:16:39.994Z,5.32
2023-04-22T04:19:06.201Z,5.13
2023-04-22T04:21:32.411Z,5.12
2023-04-22T04:23:58.858Z,5.17
2023-04-22T04:26:25.078Z,5.36
2023-04-22T04:28:51.287Z,4.98
2023-04-22T04:31:17.558Z,5.10
2023-04-22T04:33:43.837Z,5.32
2023-04-22T04:36:10.045Z,5.53
2023-04-22T04:38:36.246Z,5.36
2023-04-22T04:41:02.464Z,5.56
2023-04-22T04:43:28.681Z,5.97
2023-04-22T04:45:54.877Z,6.41
2023-04-22T04:48:21.108Z,6.96
2023-04-22T04:50:47.318Z,7.26
2023-04-22T04:53:13.517Z,8.00
2023-04-22T04:55:39.711Z,8.28
2023-04-22T04:58:05.940Z,9.07
2023-04-22T05:00:32.154Z,9.32
2023-04-22T05:02:58.557Z,10.06
2023-04-22T05:05:24.894Z,10.51
2023-04-22T05:07:51.124Z,10.92
2023-04-22T05:10:17.313Z,10.87
2023-04-22T05:12:44.162Z,10.63
2023-04-22T05:15:10.559Z,10.71
2023-04-22T05:17:36.781Z,10.62
2023-04-22T05:20:03.434Z,10.66
2023-04-22T05:22:30.092Z,10.77
2023-04-22T05:24:56.312Z,11.29
2023-04-22T05:27:22.534Z,11.39
2023-04-22T05:29:48.730Z,11.36
2023-04-22T05:32:15.060Z,11.35
2023-04-22T05:34:41.349Z,11.83
2023-04-22T05:37:07.560Z,11.18
2023-04-22T05:39:33.760Z,10.72
2023-04-22T05:41:59.994Z,11.21
2023-04-22T05:44:26.207Z,11.41
2023-04-22T05:46:52.435Z,11.97
2023-04-22T05:49:18.632Z,12.20
2023-04-22T05:51:45.159Z,12.51
2023-04-22T05:54:11.381Z,13.21
2023-04-22T05:56:37.615Z,13.67
2023-04-22T05:59:03.855Z,13.78
2023-04-22T06:01:30.091Z,13.99
2023-04-22T06:03:56.500Z,14.08
2023-04-22T06:06:22.861Z,14.46
2023-04-22T06:08:49.071Z,14.35
2023-04-22T06:11:15.319Z,14.14
2023-04-22T06:13:41.551Z,14.78
2023-04-22T06:18:35.917Z,14.58
2023-04-22T06:21:02.227Z,14.50
2023-04-22T06:23:28.440Z,14.69
2023-04-22T06:25:54.659Z,14.35
2023-04-22T06:28:20.859Z,14.58
2023-04-22T06:30:47.065Z,14.88
2023-04-22T06:33:13.304Z,14.84
2023-04-22T06:35:39.554Z,14.95
2023-04-22T06:38:05.796Z,14.96
2023-04-22T06:40:32.019Z,15.19
2023-04-22T06:42:58.248Z,15.13
2023-04-22T06:45:24.456Z,15.18
2023-04-22T06:47:52.168Z,15.60
2023-04-22T06:50:18.404Z,15.76
2023-04-22T06:52:44.698Z,15.75
2023-04-22T06:55:10.904Z,15.63
2023-04-22T06:57:37.160Z,16.06
2023-04-22T07:00:04.149Z,16.16
2023-04-22T07:02:30.457Z,16.07
2023-04-22T07:04:56.797Z,16.00
2023-04-22T07:07:23.039Z,16.39
2023-04-22T07:09:49.255Z,16.40
2023-04-22T07:12:15.568Z,16.15
2023-04-22T07:14:44.928Z,16.15
2023-04-22T07:17:11.246Z,16.29
2023-04-22T07:19:37.789Z,16.73
2023-04-22T07:22:04.276Z,17.04
2023-04-22T07:24:30.511Z,16.73
2023-04-22T07:26:56.783Z,16.66
2023-04-22T07:29:22.991Z,16.34
2023-04-22T07:31:49.241Z,16.78
2023-04-22T07:34:15.465Z,16.54
2023-04-22T07:36:41.677Z,16.52
2023-04-22T07:39:07.910Z,16.53
2023-04-22T07:41:34.116Z,17.09
2023-04-22T07:44:00.333Z,17.36
2023-04-22T07:46:26.585Z,17.50
2023-04-22T07:48:53.139Z,17.49
2023-04-22T07:51:19.348Z,17.22
2023-04-22T07:53:45.569Z,17.52
2023-04-22T07:56:11.772Z,17.26
2023-04-22T07:58:37.985Z,17.30
2023-04-22T08:01:04.297Z,17.13
2023-04-22T08:03:30.757Z,17.39
2023-04-22T08:05:57.113Z,17.89
2023-04-22T08:08:23.623Z,17.92
2023-04-22T08:10:49.874Z,17.86
2023-04-22T08:13:18.209Z,18.05
2023-04-22T08:15:44.673Z,18.36
2023-04-22T08:18:10.921Z,18.06
2023-04-22T08:20:37.150Z,18.71
2023-04-22T08:23:03.378Z,18.76
2023-04-22T08:25:29.572Z,19.00
2023-04-22T08:27:55.791Z,19.05
2023-04-22T08:30:22.021Z,19.22
2023-04-22T08:32:48.299Z,19.38
2023-04-22T08:35:14.528Z,19.76
2023-04-22T08:37:41.831Z,19.80
2023-04-22T08:40:08.288Z,19.26
2023-04-22T08:42:34.495Z,19.88
2023-04-22T08:45:02.065Z,20.13
2023-04-22T08:47:28.410Z,20.01
2023-04-22T08:49:54.992Z,20.42
2023-04-22T08:52:21.295Z,19.83
2023-04-22T08:54:47.509Z,19.96
2023-04-22T08:57:13.944Z,20.01
2023-04-22T08:59:40.397Z,20.08
2023-04-22T09:02:07.153Z,20.39
2023-04-22T09:04:33.655Z,20.32
2023-04-22T09:06:59.952Z,20.32
2023-04-22T09:09:26.148Z,20.67
2023-04-22T09:11:53.609Z,21.22
2023-04-22T09:14:19.851Z,21.25
2023-04-22T09:16:48.883Z,21.43
2023-04-22T09:19:15.215Z,21.45
2023-04-22T09:21:41.601Z,21.47
2023-04-22T09:24:11.096Z,21.84
2023-04-22T09:26:40.688Z,21.92
2023-04-22T09:29:06.922Z,22.02
2023-04-22T09:31:33.165Z,22.32
2023-04-22T09:33:59.536Z,21.80
2023-04-22T09:36:28.929Z,22.07
2023-04-22T09:38:58.595Z,21.85
2023-04-22T09:41:31.503Z,22.57
2023-04-22T09:43:58.154Z,22.72
2023-04-22T09:46:24.668Z,22.34
2023-04-22T09:48:51.091Z,22.26
2023-04-22T09:51:17.403Z,22.21
2023-04-22T09:53:43.620Z,22.15
2023-04-22T09:56:09.834Z,22.49
2023-04-22T09:58:39.168Z,21.91
2023-04-22T10:01:05.394Z,22.13
2023-04-22T10:03:31.901Z,22.25
2023-04-22T10:05:58.483Z,23.05
2023-04-22T10:08:24.739Z,23.43
2023-04-22T10:10:50.950Z,22.85
2023-04-22T10:13:17.175Z,23.08
2023-04-22T10:15:44.530Z,22.86
2023-04-22T10:18:11.871Z,23.04
2023-04-22T10:20:38.936Z,23.48
2023-04-22T10:23:05.462Z,23.26
2023-04-22T10:25:31.719Z,23.00
2023-04-22T10:28:04.928Z,22.79
2023-04-22T10:30:31.789Z,23.02
2023-04-22T10:33:16.786Z,22.93
2023-04-22T10:35:43.387Z,23.15
2023-04-22T10:38:09.624Z,23.55
2023-04-22T10:40:35.828Z,23.50
2023-04-22T10:43:02.054Z,23.38
2023-04-22T10:45:28.278Z,22.98
2023-04-22T10:47:54.517Z,23.21
2023-04-22T10:50:21.852Z,23.47
2023-04-22T10:52:49.390Z,23.51
2023-04-22T10:55:15.609Z,23.17
2023-04-22T10:57:42.386Z,23.13
2023-04-22T11:00:24.760Z,23.36
2023-04-22T11:02:51.890Z,23.48
2023-04-22T11:05:23.970Z,23.43
2023-04-22T11:07:52.722Z,23.17
2023-04-22T11:10:38.456Z,23.30
2023-04-22T11:13:04.683Z,23.52
2023-04-22T11:15:30.898Z,23.47
2023-04-22T11:17:57.191Z,22.95
2023-04-22T11:20:23.415Z,23.18
2023-04-22T11:22:53.284Z,23.20
2023-04-22T11:25:19.606Z,23.23
2023-04-22T11:27:45.879Z,23.06
2023-04-22T11:30:16.127Z,23.01
2023-04-22T11:32:43.361Z,23.43
2023-04-22T11:35:10.861Z,23.48
2023-04-22T11:37:46.544Z,23.41
2023-04-22T11:40:28.003Z,23.52
2023-04-22T11:42:56.368Z,23.58
2023-04-22T11:45:22.667Z,23.53
2023-04-22T11:47:49.161Z,23.39
2023-04-22T11:50:15.430Z,23.54
2023-04-22T11:52:45.328Z,23.83
2023-04-22T11:55:12.116Z,23.80
2023-04-22T11:57:38.325Z,23.66
2023-04-22T12:00:04.875Z,23.50
2023-04-22T12:02:31.161Z,23.69
2023-04-22T12:04:58.008Z,23.71
2023-04-22T12:07:26.366Z,23.64
2023-04-22T12:09:55.838Z,23.67
2023-04-22T12:12:28.241Z,23.76
2023-04-22T12:18:17.197Z,23.60
2023-04-22T12:20:43.406Z,22.84
2023-04-22T12:23:13.141Z,23.27
2023-04-22T12:25:39.361Z,23.48
2023-04-22T12:28:11.130Z,23.50
2023-04-22T12:45:00.978Z,23.40
2023-04-22T12:47:27.231Z,23.46
2023-04-22T12:49:53.446Z,23.19
2023-04-22T12:53:01.272Z,23.20
2023-04-22T12:55:27.474Z,23.04
2023-04-22T12:57:53.716Z,23.21
2023-04-22T13:03:10.541Z,23.47
2023-04-22T13:05:36.795Z,23.47
2023-04-22T13:08:07.123Z,23.39
2023-04-22T13:10:34.153Z,23.21
2023-04-22T13:13:15.414Z,23.07
2023-04-22T13:15:43.648Z,23.16
2023-04-22T13:18:09.909Z,23.36
2023-04-22T13:20:36.165Z,23.28
2023-04-22T13:23:02.458Z,23.33
2023-04-22T13:25:28.753Z,23.00
2023-04-22T13:27:54.975Z,23.02
2023-04-22T13:30:21.217Z,22.81
2023-04-22T13:32:47.469Z,22.85
2023-04-22T13:38:22.582Z,22.79
2023-04-22T13:40:48.794Z,22.81
2023-04-22T13:43:15.021Z,22.76
2023-04-22T13:45:41.550Z,22.68
2023-04-22T13:48:07.772Z,22.78
2023-04-22T13:50:33.974Z,22.64
2023-04-22T13:56:23.404Z,22.51
2023-04-22T13:58:50.740Z,22.31
2023-04-22T14:01:17.407Z,22.51
2023-04-22T14:04:05.022Z,22.69
2023-04-22T14:06:38.696Z,22.54
2023-04-22T14:09:04.970Z,22.52
2023-04-22T14:11:53.944Z,22.31
2023-04-22T14:17:04.512Z,22.48
2023-04-22T14:25:46.346Z,22.46
2023-04-22T14:28:25.772Z,22.36
2023-04-22T14:30:52.394Z,22.35
2023-04-22T14:33:18.909Z,22.18
2023-04-22T14:35:45.135Z,22.17
2023-04-22T14:51:09.565Z,22.00
2023-04-22T14:56:58.584Z,21.96
2023-04-22T14:59:24.791Z,21.95
2023-04-22T15:01:51.015Z,22.03
2023-04-22T15:04:17.647Z,22.13
2023-04-22T15:06:43.929Z,22.16
2023-04-22T15:09:10.309Z,22.15
2023-04-22T15:11:36.547Z,21.98
2023-04-22T15:17:11.813Z,21.85
2023-04-22T15:19:38.207Z,21.51
2023-04-22T15:22:04.584Z,21.28
2023-04-22T15:24:30.791Z,21.19
2023-04-22T15:27:06.452Z,21.15
2023-04-22T15:29:32.686Z,21.00
2023-04-22T15:31:58.926Z,21.00
2023-04-22T15:34:25.150Z,20.84
2023-04-22T15:36:51.347Z,20.87
2023-04-22T15:39:17.547Z,20.89
2023-04-22T15:41:43.760Z,20.92
2023-04-22T15:44:11.114Z,20.82
2023-04-22T15:46:39.068Z,20.81
2023-04-22T15:49:05.282Z,20.81
2023-04-22T15:51:31.507Z,20.81
2023-04-22T15:53:57.827Z,20.84
2023-04-22T15:56:24.440Z,20.88
2023-04-22T15:58:50.823Z,20.78
2023-04-22T16:01:19.419Z,20.77
2023-04-22T16:03:46.922Z,20.95
2023-04-22T16:06:13.250Z,21.04
2023-04-22T16:14:52.020Z,21.07
2023-04-22T16:17:18.298Z,21.12
2023-04-22T16:19:44.539Z,21.13
2023-04-22T16:22:10.753Z,20.99
2023-04-22T16:24:36.971Z,20.93
2023-04-22T16:27:03.187Z,20.99
2023-04-22T16:32:39.120Z,21.18
2023-04-22T16:35:05.643Z,21.15
2023-04-22T16:37:31.864Z,21.02
2023-04-22T16:39:58.079Z,21.12
2023-04-22T16:42:24.290Z,21.12
2023-04-22T16:44:50.498Z,21.11
2023-04-22T16:47:16.723Z,20.95
2023-04-22T16:52:51.988Z,20.51
2023-04-22T16:55:18.225Z,20.42
2023-04-22T16:57:44.436Z,20.42
2023-04-22T17:00:10.856Z,20.16
2023-04-22T17:08:49.194Z,19.75
2023-04-22T17:11:15.485Z,19.62
2023-04-22T17:13:49.306Z,19.43
2023-04-22T17:16:15.705Z,19.24
2023-04-22T17:18:41.952Z,18.96
2023-04-22T17:21:33.515Z,19.07
2023-04-22T17:24:00.397Z,18.85
2023-04-22T17:26:26.607Z,18.88
2023-04-22T17:32:00.953Z,18.65
2023-04-22T17:34:27.156Z,18.57
2023-04-22T17:36:53.375Z,18.66
2023-04-22T17:42:19.847Z,18.65
2023-04-22T17:47:13.715Z,18.50
2023-04-22T17:49:40.273Z,18.33
2023-04-22T17:52:06.732Z,18.31
2023-04-22T17:54:32.930Z,18.24
2023-04-22T17:56:59.152Z,18.12
2023-04-22T17:59:25.355Z,18.07
2023-04-22T18:01:51.601Z,18.08
2023-04-22T18:04:17.963Z,18.01
2023-04-22T18:06:44.277Z,17.92
2023-04-22T18:09:10.489Z,17.90
2023-04-22T18:11:36.704Z,17.73
2023-04-22T18:14:02.916Z,17.81
2023-04-22T18:16:29.180Z,17.79
2023-04-22T18:18:55.487Z,17.72
2023-04-22T18:21:21.697Z,17.62
2023-04-22T18:23:47.893Z,17.56
2023-04-22T18:26:14.093Z,17.55
2023-04-22T18:28:40.294Z,17.68
2023-04-22T18:31:06.997Z,17.68
2023-04-22T18:33:33.273Z,17.59
2023-04-22T18:35:59.526Z,17.57
2023-04-22T18:38:25.774Z,17.59
2023-04-22T18:40:52.009Z,17.49
2023-04-22T18:43:18.216Z,17.39
2023-04-22T18:45:44.453Z,17.49
2023-04-22T18:48:10.725Z,17.46
2023-04-22T18:50:36.949Z,17.34
2023-04-22T18:53:03.158Z,17.44
2023-04-22T18:55:29.381Z,17.33
2023-04-22T18:57:55.584Z,17.25
2023-04-22T19:00:21.794Z,17.23
2023-04-22T19:02:48.077Z,17.18
2023-04-22T19:05:14.387Z,17.12
2023-04-22T19:07:42.489Z,17.25
2023-04-22T19:10:09.962Z,17.28
2023-04-22T19:12:36.173Z,17.39
2023-04-22T19:15:02.387Z,17.34
2023-04-22T19:17:28.633Z,17.33
2023-04-22T19:19:55.011Z,17.22
2023-04-22T19:22:21.287Z,17.16
2023-04-22T19:24:47.495Z,17.09
2023-04-22T19:27:13.838Z,17.22
2023-04-22T19:29:40.752Z,17.08
2023-04-22T19:32:07.706Z,17.01
2023-04-22T19:34:33.904Z,16.96
2023-04-22T19:37:00.153Z,16.88
2023-04-22T19:39:26.346Z,16.88
2023-04-22T19:41:52.576Z,16.92
2023-04-22T19:44:18.799Z,16.90
2023-04-22T19:46:45.064Z,16.77
2023-04-22T19:49:11.438Z,16.68
2023-04-22T19:51:38.572Z,16.72
2023-04-22T19:54:05.059Z,16.73
2023-04-22T19:56:31.574Z,16.66
2023-04-22T19:58:57.863Z,16.64
2023-04-22T20:01:24.567Z,16.55
2023-04-22T20:03:50.991Z,16.35
2023-04-22T20:06:17.416Z,16.30
2023-04-22T20:08:43.634Z,16.21
2023-04-22T20:11:09.873Z,16.10
2023-04-22T20:13:36.119Z,15.97
2023-04-22T20:16:02.448Z,15.96
2023-04-22T20:18:28.721Z,15.98
2023-04-22T20:20:54.965Z,16.01
2023-04-22T20:23:21.181Z,15.93
2023-04-22T20:25:47.388Z,15.92
2023-04-22T20:28:13.650Z,15.91
2023-04-22T20:30:40.313Z,15.92
2023-04-22T20:33:06.637Z,15.78
2023-04-22T20:35:33.084Z,15.76
2023-04-22T20:37:59.351Z,15.74
2023-04-22T20:40:25.576Z,15.71
2023-04-22T20:42:51.790Z,15.73
2023-04-22T20:45:18.040Z,15.73
2023-04-22T20:47:44.298Z,15.68
2023-04-22T20:50:10.726Z,15.72
2023-04-22T20:52:36.965Z,15.70
2023-04-22T20:55:03.185Z,15.73
2023-04-22T20:57:29.389Z,15.70
2023-04-22T20:59:55.601Z,15.75
2023-04-22T21:02:21.918Z,15.75
2023-04-22T21:04:48.291Z,15.68
2023-04-22T21:07:15.387Z,15.66
2023-04-22T21:09:41.685Z,15.53
2023-04-22T21:12:08.146Z,15.45
2023-04-22T21:14:34.385Z,15.48
2023-04-22T21:17:01.199Z,15.56
2023-04-22T21:19:29.603Z,15.52
2023-04-22T21:21:55.867Z,15.63
2023-04-22T21:24:22.068Z,15.59
2023-04-22T21:26:48.267Z,15.59
2023-04-22T21:29:14.541Z,15.49
2023-04-22T21:31:40.922Z,15.48
2023-04-22T21:34:07.275Z,15.44
2023-04-22T21:36:33.480Z,15.54
2023-04-22T21:38:59.752Z,15.61
2023-04-22T21:41:25.983Z,15.53
2023-04-22T21:43:52.199Z,15.56
2023-04-22T21:46:18.416Z,15.62
2023-04-22T21:48:44.685Z,15.54
2023-04-22T21:51:10.888Z,15.51
2023-04-22T21:53:37.102Z,15.58
2023-04-22T21:56:03.303Z,15.55
2023-04-22T21:58:29.507Z,15.49
2023-04-22T22:00:55.731Z,15.44
2023-04-22T22:03:22.058Z,15.44
2023-04-22T22:05:48.385Z,15.33
2023-04-22T22:08:14.613Z,15.39
2023-04-22T22:10:40.823Z,15.36
2023-04-22T22:13:07.024Z,15.37
2023-04-22T22:15:33.246Z,15.24
2023-04-22T22:17:59.572Z,15.24
2023-04-22T22:20:25.799Z,15.23
2023-04-22T22:22:52.041Z,15.14
2023-04-22T22:25:18.252Z,15.25
2023-04-22T22:27:44.473Z,15.27
2023-04-22T22:30:10.904Z,15.22
2023-04-22T22:32:37.126Z,15.27
2023-04-22T22:35:03.371Z,15.29
2023-04-22T22:37:29.588Z,15.27
2023-04-22T22:39:55.793Z,15.39
2023-04-22T22:42:22.094Z,15.52
2023-04-22T22:44:48.295Z,15.57
2023-04-22T22:47:14.510Z,15.58
2023-04-22T22:49:40.749Z,15.52
2023-04-22T22:52:06.984Z,15.46
2023-04-22T22:54:35.792Z,15.45
2023-04-22T22:57:02.005Z,15.54
2023-04-22T22:59:28.216Z,15.72
2023-04-22T23:01:54.455Z,15.75
2023-04-22T23:04:21.040Z,15.70
2023-04-22T23:06:47.473Z,15.51
2023-04-22T23:09:13.691Z,15.42
2023-04-22T23:11:39.899Z,15.33
2023-04-22T23:14:06.120Z,15.28
2023-04-22T23:16:32.355Z,15.19
2023-04-22T23:18:58.591Z,15.08
2023-04-22T23:21:24.790Z,14.94
2023-04-22T23:23:50.995Z,14.82
2023-04-22T23:26:17.262Z,14.81
2023-04-22T23:28:43.512Z,14.72
2023-04-22T23:31:09.741Z,14.62
2023-04-22T23:33:36.107Z,14.49
2023-04-22T23:36:03.335Z,14.47
2023-04-22T23:38:29.553Z,14.36
2023-04-22T23:40:55.772Z,14.25
2023-04-22T23:43:21.992Z,14.21
2023-04-22T23:45:48.255Z,14.16
2023-04-22T23:48:14.492Z,14.19
2023-04-22T23:50:40.691Z,14.14
2023-04-22T23:53:06.895Z,14.16
2023-04-22T23:55:33.245Z,14.16
2023-04-22T23:57:59.491Z,14.17
